Time;durP1;ratioP1;P1;durP2;ratioP2;P2;SDS_P1;SDS_P2;PMS_P1;PMS_P2;Temp;Humidity;BMP_temperature;BMP_pressure;BME280_temperature;BME280_humidity;BME280_pressure;Samples;Min_cycle;Max_cycle;Signal;HPM_P1;HPM_P2
2023/05/19 00:02:19;;;;;;;5.07;1.85;;;10.00;99.90;;;;;;5089386;28;20067;-69
2023/05/19 00:04:54;;;;;;;6.70;1.85;;;10.00;99.90;;;;;;5093399;28;20113;-71
2023/05/19 00:07:25;;;;;;;8.85;1.90;;;9.90;99.90;;;;;;5086219;28;20446;-71
2023/05/19 00:09:51;;;;;;;9.38;2.67;;;10.00;99.90;;;;;;5087398;28;20032;-70
2023/05/19 00:12:17;;;;;;;4.72;1.48;;;10.00;99.90;;;;;;5086683;28;20523;-69
2023/05/19 00:14:43;;;;;;;3.75;1.20;;;9.90;99.90;;;;;;5091247;28;20032;-69
2023/05/19 00:17:08;;;;;;;8.82;2.55;;;9.90;99.90;;;;;;5091723;28;20079;-70
2023/05/19 00:19:34;;;;;;;5.35;1.40;;;9.80;99.90;;;;;;5096421;28;20117;-70
2023/05/19 00:21:59;;;;;;;9.00;2.03;;;9.80;99.90;;;;;;5089174;28;20032;-71
2023/05/19 00:24:25;;;;;;;3.50;1.40;;;9.80;99.90;;;;;;5087484;28;20039;-69
2023/05/19 00:26:57;;;;;;;9.82;2.17;;;9.70;99.90;;;;;;5090866;28;20024;-69
2023/05/19 00:29:25;;;;;;;6.70;1.60;;;9.60;99.90;;;;;;5091858;28;20043;-69
2023/05/19 00:31:50;;;;;;;6.25;1.65;;;9.70;99.90;;;;;;5090022;28;20084;-69
2023/05/19 00:34:16;;;;;;;8.18;1.75;;;9.60;99.90;;;;;;5091361;28;20115;-72
2023/05/19 00:36:42;;;;;;;4.80;2.00;;;9.60;99.90;;;;;;5094146;28;20070;-69
2023/05/19 00:39:07;;;;;;;5.50;1.42;;;9.60;99.90;;;;;;5097594;28;20032;-69
2023/05/19 00:41:33;;;;;;;3.63;1.30;;;9.60;99.90;;;;;;5096826;28;20040;-70
2023/05/19 00:44:01;;;;;;;6.63;1.52;;;9.50;99.90;;;;;;5096257;28;20051;-69
2023/05/19 00:46:29;;;;;;;6.05;1.80;;;9.40;99.90;;;;;;5089910;28;20390;-70
2023/05/19 00:48:54;;;;;;;4.97;1.63;;;9.50;99.90;;;;;;5095803;28;20485;-69
2023/05/19 00:51:20;;;;;;;6.22;1.77;;;9.50;99.90;;;;;;5097150;28;20065;-69
2023/05/19 00:53:49;;;;;;;13.77;2.63;;;9.50;99.90;;;;;;5094870;28;20080;-70
2023/05/19 00:56:21;;;;;;;9.98;2.33;;;9.50;99.90;;;;;;5095942;28;20024;-68
2023/05/19 00:58:50;;;;;;;6.60;2.05;;;9.40;99.90;;;;;;5094729;28;20028;-70
2023/05/19 01:01:18;;;;;;;5.00;1.40;;;9.40;99.90;;;;;;5094789;28;20576;-72
2023/05/19 01:03:47;;;;;;;6.60;1.50;;;9.30;99.90;;;;;;5092482;28;20032;-69
2023/05/19 01:06:13;;;;;;;6.60;1.45;;;9.30;99.90;;;;;;5097965;27;20058;-69
2023/05/19 01:08:39;;;;;;;6.90;1.60;;;9.30;99.90;;;;;;5090609;28;20028;-69
2023/05/19 01:11:06;;;;;;;10.52;3.83;;;9.30;99.90;;;;;;5093412;28;20035;-69
2023/05/19 01:13:35;;;;;;;5.22;2.00;;;9.20;99.90;;;;;;5093580;28;20050;-69
2023/05/19 01:16:16;;;;;;;8.38;1.88;;;9.20;99.90;;;;;;5100881;27;20121;-70
2023/05/19 01:19:16;;;;;;;5.03;1.75;;;9.20;99.90;;;;;;5093938;28;20036;-69
2023/05/19 01:22:21;;;;;;;4.50;2.10;;;9.20;99.90;;;;;;5087773;28;20040;-69
2023/05/19 01:25:25;;;;;;;4.78;1.95;;;9.20;99.90;;;;;;5095669;28;20028;-70
2023/05/19 01:28:45;;;;;;;4.80;1.95;;;9.20;99.90;;;;;;5095205;28;20824;-68
2023/05/19 01:31:15;;;;;;;5.93;2.00;;;9.10;99.90;;;;;;5011384;28;20833;-69
2023/05/19 01:33:43;;;;;;;5.55;1.92;;;9.10;99.90;;;;;;5079799;28;20089;-69
2023/05/19 01:36:13;;;;;;;3.88;1.80;;;9.10;99.90;;;;;;5094858;28;20045;-69
2023/05/19 01:38:42;;;;;;;9.75;2.13;;;9.10;99.90;;;;;;5096587;28;20046;-71
2023/05/19 01:41:11;;;;;;;4.65;1.90;;;9.10;99.90;;;;;;5092834;28;20080;-69
2023/05/19 01:43:40;;;;;;;10.95;2.25;;;9.10;99.90;;;;;;5095719;28;20047;-69
2023/05/19 01:46:06;;;;;;;6.95;1.77;;;9.10;99.90;;;;;;5093890;28;20036;-68
2023/05/19 01:48:32;;;;;;;10.23;2.47;;;9.00;99.90;;;;;;5094591;28;20100;-71
2023/05/19 01:50:58;;;;;;;5.78;1.85;;;9.00;99.90;;;;;;5094324;28;20035;-68
2023/05/19 01:53:24;;;;;;;6.32;1.92;;;9.00;99.90;;;;;;5095897;28;20036;-68
2023/05/19 01:55:53;;;;;;;4.82;1.98;;;9.00;99.90;;;;;;5095533;28;20135;-69
2023/05/19 01:58:44;;;;;;;10.05;3.38;;;9.00;99.90;;;;;;5100319;28;20126;-69
2023/05/19 02:01:30;;;;;;;4.65;1.35;;;9.00;99.90;;;;;;5095834;28;20082;-69
2023/05/19 02:04:21;;;;;;;8.48;1.77;;;8.90;99.90;;;;;;5123620;27;20031;-69
2023/05/19 02:07:14;;;;;;;9.55;2.67;;;9.00;99.90;;;;;;5092799;28;20130;-71
2023/05/19 02:09:55;;;;;;;10.00;1.92;;;8.90;99.90;;;;;;5092998;28;20035;-69
2023/05/19 02:12:27;;;;;;;8.15;2.85;;;8.90;99.90;;;;;;5092444;28;20032;-69
2023/05/19 02:15:05;;;;;;;6.88;1.85;;;8.90;99.90;;;;;;5097944;28;20096;-68
2023/05/19 02:17:34;;;;;;;10.18;3.15;;;8.90;99.90;;;;;;5095348;28;20097;-69
2023/05/19 02:20:01;;;;;;;7.20;2.13;;;8.90;99.90;;;;;;5099137;28;20100;-69
2023/05/19 02:22:26;;;;;;;8.65;1.92;;;8.80;99.90;;;;;;5093010;28;20575;-69
2023/05/19 02:24:52;;;;;;;7.03;1.98;;;8.80;99.90;;;;;;5093465;28;20134;-69
2023/05/19 02:27:17;;;;;;;5.22;1.90;;;8.80;99.90;;;;;;5088543;28;20444;-69
2023/05/19 02:29:43;;;;;;;5.78;2.35;;;8.90;99.90;;;;;;5094008;28;20428;-69
2023/05/19 02:32:10;;;;;;;6.53;2.10;;;8.90;99.90;;;;;;5085768;28;20066;-71
2023/05/19 02:34:38;;;;;;;7.70;2.08;;;8.80;99.90;;;;;;5094369;28;20458;-69
2023/05/19 02:37:07;;;;;;;11.52;2.00;;;8.80;99.90;;;;;;5097249;28;20050;-69
2023/05/19 02:39:35;;;;;;;6.35;1.90;;;8.80;99.90;;;;;;5090971;28;20032;-69
2023/05/19 02:42:01;;;;;;;9.77;2.63;;;8.80;99.90;;;;;;5087928;28;20074;-69
2023/05/19 02:44:26;;;;;;;5.22;2.17;;;8.80;99.90;;;;;;5087602;28;20055;-71
2023/05/19 02:46:55;;;;;;;6.05;2.20;;;8.80;99.90;;;;;;5087578;28;20024;-69
2023/05/19 02:49:29;;;;;;;6.95;2.00;;;8.70;99.90;;;;;;5090438;28;20035;-69
2023/05/19 02:51:56;;;;;;;6.90;1.95;;;8.70;99.90;;;;;;5084891;28;20749;-70
2023/05/19 02:54:21;;;;;;;4.25;1.98;;;8.70;99.90;;;;;;5086263;28;20043;-69
2023/05/19 02:56:47;;;;;;;12.65;2.92;;;8.60;99.90;;;;;;5090918;28;20032;-69
2023/05/19 02:59:12;;;;;;;6.50;2.58;;;8.60;99.90;;;;;;5089695;28;20557;-70
2023/05/19 03:01:41;;;;;;;10.45;2.60;;;8.60;99.90;;;;;;5092487;28;20055;-70
2023/05/19 03:04:13;;;;;;;12.95;2.20;;;8.60;99.90;;;;;;5091105;28;20081;-69
2023/05/19 03:06:39;;;;;;;10.10;2.10;;;8.60;99.90;;;;;;5096589;28;20113;-70
2023/05/19 03:09:04;;;;;;;12.77;2.35;;;8.70;99.90;;;;;;5092142;28;20062;-69
2023/05/19 03:11:30;;;;;;;4.28;2.30;;;8.60;99.90;;;;;;5088246;28;20399;-69
2023/05/19 03:13:57;;;;;;;6.45;2.70;;;8.60;99.90;;;;;;5090583;28;20040;-68
2023/05/19 03:16:23;;;;;;;6.65;1.95;;;8.60;99.90;;;;;;5085336;28;20748;-70
2023/05/19 03:18:48;;;;;;;10.00;2.22;;;8.60;99.90;;;;;;5087589;28;20123;-68
2023/05/19 03:21:14;;;;;;;8.80;2.42;;;8.60;99.90;;;;;;5089379;28;20107;-69
2023/05/19 03:23:40;;;;;;;7.03;2.63;;;8.60;99.90;;;;;;5089306;28;20441;-69
2023/05/19 03:26:05;;;;;;;8.48;2.53;;;8.60;99.90;;;;;;5091241;28;20051;-70
2023/05/19 03:28:31;;;;;;;11.73;2.97;;;8.50;99.90;;;;;;5090084;28;20111;-69
2023/05/19 03:30:56;;;;;;;8.93;3.03;;;8.50;99.90;;;;;;5096424;28;20535;-69
2023/05/19 03:33:22;;;;;;;8.13;2.65;;;8.50;99.90;;;;;;5085665;28;20117;-70
2023/05/19 03:35:48;;;;;;;9.23;2.53;;;8.50;99.90;;;;;;5087018;28;20061;-70
2023/05/19 03:38:16;;;;;;;9.35;2.05;;;8.50;99.90;;;;;;5087098;28;20032;-69
2023/05/19 03:40:52;;;;;;;6.68;2.15;;;8.40;99.90;;;;;;5090628;28;20141;-69
2023/05/19 03:43:20;;;;;;;10.13;2.28;;;8.50;99.90;;;;;;5086168;28;20032;-69
2023/05/19 03:45:46;;;;;;;6.57;2.42;;;8.40;99.90;;;;;;5094097;28;20036;-69
2023/05/19 03:48:11;;;;;;;4.85;2.28;;;8.50;99.90;;;;;;5094438;28;20170;-69
2023/05/19 03:50:43;;;;;;;7.78;2.60;;;8.40;99.90;;;;;;5088814;28;20136;-69
2023/05/19 03:53:09;;;;;;;9.48;2.33;;;8.40;99.90;;;;;;5086800;28;20036;-69
2023/05/19 03:55:36;;;;;;;9.45;2.30;;;8.40;99.90;;;;;;5088872;28;20043;-69
2023/05/19 03:58:13;;;;;;;7.28;2.40;;;8.40;99.90;;;;;;5092022;28;20024;-70
2023/05/19 04:00:39;;;;;;;12.27;3.50;;;8.40;99.90;;;;;;5086639;28;20110;-69
2023/05/19 04:03:05;;;;;;;9.95;3.00;;;8.40;99.90;;;;;;5086952;28;20035;-69
2023/05/19 04:05:30;;;;;;;8.27;2.67;;;8.40;99.90;;;;;;5088322;28;20028;-69
2023/05/19 04:07:56;;;;;;;10.50;2.53;;;8.50;99.90;;;;;;5093916;28;20035;-69
2023/05/19 04:10:21;;;;;;;12.52;2.50;;;8.50;99.90;;;;;;5089755;28;20043;-70
2023/05/19 04:12:47;;;;;;;12.00;2.78;;;8.50;99.90;;;;;;5099090;28;20027;-69
2023/05/19 04:15:18;;;;;;;12.02;2.92;;;8.50;99.90;;;;;;5099776;28;20036;-70
2023/05/19 04:17:44;;;;;;;11.48;2.83;;;8.50;99.90;;;;;;5092642;28;20040;-69
2023/05/19 04:20:13;;;;;;;10.48;3.00;;;8.50;99.90;;;;;;5093201;28;20042;-68
2023/05/19 04:22:38;;;;;;;5.80;2.55;;;8.50;99.90;;;;;;5096580;28;20054;-71
2023/05/19 04:25:04;;;;;;;8.43;2.45;;;8.60;99.90;;;;;;5099832;28;20031;-69
2023/05/19 04:27:30;;;;;;;8.10;2.67;;;8.50;99.90;;;;;;5097630;28;20035;-71
2023/05/19 04:29:59;;;;;;;12.43;2.60;;;8.50;99.90;;;;;;5091655;28;20422;-69
2023/05/19 04:32:24;;;;;;;12.95;2.50;;;8.50;99.90;;;;;;5096160;28;20526;-69
2023/05/19 04:34:50;;;;;;;14.30;3.63;;;8.60;99.90;;;;;;5097074;28;20023;-69
2023/05/19 04:37:19;;;;;;;9.40;3.45;;;8.60;99.90;;;;;;5091823;28;20483;-68
2023/05/19 04:39:45;;;;;;;8.18;3.28;;;8.60;99.90;;;;;;5091542;28;20050;-69
2023/05/19 04:42:12;;;;;;;10.30;3.03;;;8.60;99.90;;;;;;5096352;28;20042;-69
2023/05/19 04:44:38;;;;;;;11.63;3.05;;;8.60;99.90;;;;;;5097460;28;20031;-69
2023/05/19 04:47:07;;;;;;;12.60;3.28;;;8.60;99.90;;;;;;5095500;28;20054;-69
2023/05/19 04:49:37;;;;;;;13.27;3.55;;;8.70;99.90;;;;;;5093020;28;20088;-69
2023/05/19 04:52:09;;;;;;;6.43;2.60;;;8.70;99.90;;;;;;5094605;28;20109;-69
2023/05/19 04:54:35;;;;;;;12.60;2.95;;;8.80;99.90;;;;;;5085856;28;20028;-69
2023/05/19 04:57:04;;;;;;;8.55;2.60;;;8.80;99.90;;;;;;5097209;28;20034;-71
2023/05/19 04:59:30;;;;;;;10.77;2.40;;;8.90;99.90;;;;;;5095265;28;20432;-69
2023/05/19 05:01:56;;;;;;;13.60;2.88;;;8.90;99.90;;;;;;5101785;28;20069;-69
2023/05/19 05:04:22;;;;;;;7.35;2.70;;;8.90;99.90;;;;;;5095094;28;20032;-70
2023/05/19 05:06:49;;;;;;;8.63;3.13;;;8.90;99.90;;;;;;5098177;28;20039;-69
2023/05/19 05:09:18;;;;;;;11.65;2.30;;;9.00;99.90;;;;;;5096709;28;20028;-70
2023/05/19 05:11:44;;;;;;;10.88;2.58;;;9.00;99.90;;;;;;5086342;28;20128;-70
2023/05/19 05:14:10;;;;;;;9.73;2.92;;;9.10;99.90;;;;;;5092158;28;20035;-69
2023/05/19 05:16:36;;;;;;;11.68;2.58;;;9.10;99.90;;;;;;5095686;27;20123;-70
2023/05/19 05:19:02;;;;;;;8.20;2.70;;;9.20;99.90;;;;;;5094760;28;20028;-70
2023/05/19 05:21:28;;;;;;;6.80;2.72;;;9.30;99.90;;;;;;5093902;28;20373;-67
2023/05/19 05:23:56;;;;;;;10.40;3.08;;;9.30;99.90;;;;;;5095178;28;20118;-69
2023/05/19 05:26:25;;;;;;;7.05;3.03;;;9.40;99.90;;;;;;5089667;28;20030;-70
2023/05/19 05:28:50;;;;;;;8.32;2.53;;;9.50;99.90;;;;;;5093631;28;20088;-70
2023/05/19 05:31:16;;;;;;;10.05;2.42;;;9.60;99.90;;;;;;5094874;28;20040;-70
2023/05/19 05:33:42;;;;;;;8.10;3.40;;;9.70;99.90;;;;;;5091322;28;20039;-70
2023/05/19 05:36:08;;;;;;;4.53;2.25;;;9.80;99.90;;;;;;5096440;28;20028;-69
2023/05/19 05:38:33;;;;;;;7.32;2.40;;;10.00;99.90;;;;;;5094025;28;20089;-72
2023/05/19 05:41:01;;;;;;;7.68;2.88;;;10.30;99.90;;;;;;5094303;28;20073;-71
2023/05/19 05:43:27;;;;;;;5.70;1.95;;;10.80;99.90;;;;;;5100863;28;20564;-70
2023/05/19 05:45:53;;;;;;;18.17;3.13;;;11.10;99.90;;;;;;5094525;28;20085;-73
2023/05/19 05:48:19;;;;;;;8.00;2.35;;;11.50;99.90;;;;;;5095504;28;20610;-70
2023/05/19 05:50:45;;;;;;;7.35;2.00;;;11.80;99.90;;;;;;5098857;28;20073;-70
2023/05/19 05:53:17;;;;;;;7.72;1.73;;;12.30;99.90;;;;;;5096714;28;20122;-68
2023/05/19 05:55:43;;;;;;;5.50;1.67;;;12.60;99.90;;;;;;5122853;27;20130;-69
2023/05/19 05:58:10;;;;;;;9.05;2.05;;;13.30;99.90;;;;;;5091704;28;20032;-69
2023/05/19 06:00:36;;;;;;;6.07;1.83;;;14.00;99.90;;;;;;5097003;27;20054;-68
2023/05/19 06:03:03;;;;;;;4.70;1.55;;;15.10;99.90;;;;;;5103224;28;20484;-71
2023/05/19 06:05:40;;;;;;;7.95;2.58;;;15.90;99.90;;;;;;5096946;28;20032;-71
2023/05/19 06:08:06;;;;;;;6.55;1.55;;;17.30;99.90;;;;;;5094102;28;20047;-70
2023/05/19 06:10:31;;;;;;;14.20;2.03;;;18.50;99.90;;;;;;5094933;28;20391;-69
2023/05/19 06:12:57;;;;;;;6.35;1.38;;;19.30;99.40;;;;;;5099848;28;20039;-69
2023/05/19 06:15:23;;;;;;;7.40;1.73;;;20.20;97.70;;;;;;5100893;28;20075;-68
2023/05/19 06:17:54;;;;;;;3.00;1.33;;;20.80;96.10;;;;;;5102010;28;20509;-70
2023/05/19 06:20:20;;;;;;;3.92;1.73;;;21.60;94.20;;;;;;5098637;28;20027;-70
2023/05/19 06:22:46;;;;;;;9.38;2.42;;;22.20;93.90;;;;;;5091955;28;20047;-70
2023/05/19 06:25:12;;;;;;;4.20;1.92;;;22.50;92.60;;;;;;5095929;28;20077;-69
2023/05/19 06:27:38;;;;;;;4.68;1.88;;;22.80;92.50;;;;;;5086447;28;20040;-69
2023/05/19 06:30:07;;;;;;;6.18;2.17;;;23.40;91.50;;;;;;5097440;28;20036;-71
2023/05/19 06:32:35;;;;;;;6.97;1.98;;;24.00;91.00;;;;;;5092755;28;20024;-71
2023/05/19 06:35:01;;;;;;;7.90;2.53;;;24.20;90.80;;;;;;5098741;28;20050;-71
2023/05/19 06:37:26;;;;;;;11.52;1.95;;;23.90;88.40;;;;;;5095706;28;20471;-71
2023/05/19 06:39:55;;;;;;;7.07;2.70;;;23.20;90.20;;;;;;5095461;28;20718;-71
2023/05/19 06:42:21;;;;;;;5.68;1.80;;;23.10;90.30;;;;;;5094753;28;20062;-71
2023/05/19 06:44:51;;;;;;;6.38;2.25;;;23.50;88.20;;;;;;5092719;28;20149;-70
2023/05/19 06:47:18;;;;;;;6.88;2.10;;;23.60;89.20;;;;;;5086756;28;20146;-72
2023/05/19 06:49:44;;;;;;;7.55;2.17;;;23.70;88.80;;;;;;5092937;28;20395;-69
2023/05/19 06:52:10;;;;;;;3.95;1.65;;;23.60;87.20;;;;;;5087179;28;20052;-70
2023/05/19 06:54:35;;;;;;;5.97;2.30;;;23.90;87.60;;;;;;5082505;28;20407;-70
2023/05/19 06:57:01;;;;;;;4.85;1.83;;;24.20;86.50;;;;;;5088073;28;20039;-70
2023/05/19 06:59:27;;;;;;;12.30;2.40;;;24.80;86.50;;;;;;5089065;28;20047;-70
2023/05/19 07:01:52;;;;;;;9.85;2.17;;;25.40;86.70;;;;;;5098538;28;20044;-70
2023/05/19 07:04:18;;;;;;;6.35;2.38;;;25.60;84.00;;;;;;5098019;28;20040;-73
2023/05/19 07:06:43;;;;;;;7.28;2.38;;;26.00;83.20;;;;;;5091963;28;20040;-69
2023/05/19 07:09:09;;;;;;;4.20;1.95;;;25.90;83.20;;;;;;5089230;28;20102;-71
2023/05/19 07:11:35;;;;;;;8.23;1.90;;;25.90;82.40;;;;;;5086856;28;20428;-71
2023/05/19 07:14:00;;;;;;;5.25;1.95;;;26.20;80.60;;;;;;5092417;28;20042;-70
2023/05/19 07:16:26;;;;;;;7.78;2.22;;;26.00;81.60;;;;;;5087694;28;20523;-70
2023/05/19 07:18:51;;;;;;;7.93;2.58;;;25.80;81.00;;;;;;5088024;28;20524;-71
2023/05/19 07:21:17;;;;;;;9.38;2.17;;;25.80;80.50;;;;;;5087795;28;20042;-72
2023/05/19 07:23:42;;;;;;;6.85;2.28;;;25.70;80.00;;;;;;5088415;28;20093;-71
2023/05/19 07:26:08;;;;;;;8.30;1.83;;;25.20;80.10;;;;;;5087632;28;20039;-71
2023/05/19 07:28:33;;;;;;;4.35;2.35;;;25.20;80.60;;;;;;5087952;28;20060;-71
2023/05/19 07:30:59;;;;;;;5.07;2.17;;;25.10;80.30;;;;;;5090163;28;20035;-71
2023/05/19 07:33:25;;;;;;;3.53;1.77;;;25.00;80.40;;;;;;5085122;28;20051;-72
2023/05/19 07:35:51;;;;;;;7.85;2.08;;;24.50;80.60;;;;;;5090057;28;20828;-71
2023/05/19 07:38:17;;;;;;;4.82;1.70;;;23.80;80.70;;;;;;5088207;28;20790;-72
2023/05/19 07:40:43;;;;;;;7.63;1.75;;;23.60;82.70;;;;;;5087164;28;20040;-69
2023/05/19 07:43:10;;;;;;;5.53;2.05;;;23.70;82.50;;;;;;5089528;28;20534;-69
2023/05/19 07:45:36;;;;;;;7.15;2.28;;;23.60;83.80;;;;;;5088933;28;20028;-72
2023/05/19 07:48:01;;;;;;;6.57;2.40;;;23.60;83.20;;;;;;5088371;28;20032;-72
2023/05/19 07:50:27;;;;;;;4.32;1.65;;;23.80;82.50;;;;;;5086725;28;20677;-70
2023/05/19 07:52:53;;;;;;;5.22;1.60;;;23.70;81.90;;;;;;5090656;28;20058;-69
2023/05/19 07:55:21;;;;;;;3.13;1.15;;;23.10;83.60;;;;;;5085640;28;20029;-71
2023/05/19 07:57:47;;;;;;;9.43;2.10;;;22.60;84.60;;;;;;5084289;28;20042;-70
2023/05/19 08:00:13;;;;;;;6.72;1.40;;;22.30;86.30;;;;;;5089392;28;20115;-69
2023/05/19 08:02:40;;;;;;;8.80;1.90;;;22.10;86.20;;;;;;5086594;28;20036;-70
2023/05/19 08:05:06;;;;;;;4.00;1.40;;;21.50;86.60;;;;;;5088696;28;20110;-69
2023/05/19 08:07:31;;;;;;;2.70;1.38;;;21.10;87.80;;;;;;5085856;28;20198;-70
2023/05/19 08:09:57;;;;;;;3.78;1.20;;;20.90;88.00;;;;;;5089758;28;20063;-70
2023/05/19 08:12:23;;;;;;;3.67;1.13;;;20.50;86.40;;;;;;5084333;28;20125;-70
2023/05/19 08:14:48;;;;;;;5.68;1.73;;;20.30;87.40;;;;;;5087507;28;20028;-69
2023/05/19 08:17:14;;;;;;;5.22;0.88;;;20.00;87.90;;;;;;5091606;28;20035;-72
2023/05/19 08:19:39;;;;;;;6.38;1.15;;;19.90;90.10;;;;;;5088339;28;20028;-70
2023/05/19 08:22:05;;;;;;;5.57;1.27;;;19.50;88.80;;;;;;5087558;28;20078;-70
2023/05/19 08:24:32;;;;;;;5.15;1.23;;;19.30;89.90;;;;;;5090251;28;20039;-70
2023/05/19 08:26:58;;;;;;;2.97;0.98;;;19.30;89.80;;;;;;5090029;28;20513;-70
2023/05/19 08:29:23;;;;;;;3.72;1.05;;;19.30;90.40;;;;;;5084871;28;20048;-70
2023/05/19 08:31:49;;;;;;;4.60;0.80;;;19.30;90.10;;;;;;5087212;28;20555;-70
2023/05/19 08:34:15;;;;;;;4.25;1.33;;;19.30;90.10;;;;;;5086677;28;20036;-72
2023/05/19 08:36:40;;;;;;;4.63;1.00;;;19.30;89.80;;;;;;5086033;28;20039;-71
2023/05/19 08:39:06;;;;;;;6.32;1.05;;;19.40;88.80;;;;;;5086674;28;20123;-72
2023/05/19 08:41:32;;;;;;;3.55;0.77;;;19.50;90.30;;;;;;5088165;28;20106;-70
2023/05/19 08:43:57;;;;;;;6.75;1.23;;;19.60;90.40;;;;;;5086887;28;20040;-69
2023/05/19 08:46:24;;;;;;;7.78;1.45;;;19.70;90.10;;;;;;5084690;28;20039;-70
2023/05/19 08:48:57;;;;;;;3.88;1.00;;;19.90;88.50;;;;;;5092868;28;20407;-70
2023/05/19 08:51:32;;;;;;;4.88;0.88;;;19.60;89.30;;;;;;5088321;28;20055;-70
2023/05/19 08:54:08;;;;;;;7.43;1.10;;;19.60;89.90;;;;;;5094011;28;20071;-70
2023/05/19 08:56:40;;;;;;;4.07;1.10;;;19.60;89.30;;;;;;5092041;28;20035;-71
2023/05/19 08:59:10;;;;;;;6.10;1.02;;;19.70;90.40;;;;;;5091356;28;20044;-71
2023/05/19 09:01:37;;;;;;;3.03;0.80;;;19.90;86.80;;;;;;5089835;28;20036;-69
2023/05/19 09:04:03;;;;;;;4.20;1.45;;;19.90;87.70;;;;;;5094966;28;20027;-70
2023/05/19 09:06:32;;;;;;;5.70;0.98;;;20.00;89.60;;;;;;5090255;28;20062;-69
2023/05/19 09:08:57;;;;;;;6.05;1.00;;;19.90;88.60;;;;;;5086768;28;20054;-70
2023/05/19 09:11:23;;;;;;;5.00;0.98;;;19.90;87.50;;;;;;5097692;28;20053;-71
2023/05/19 09:13:49;;;;;;;7.07;1.25;;;19.80;88.00;;;;;;5092916;28;20130;-71
2023/05/19 09:16:20;;;;;;;5.85;1.10;;;20.00;88.60;;;;;;5096640;28;20038;-69
2023/05/19 09:18:59;;;;;;;3.65;1.00;;;20.00;88.00;;;;;;5096209;28;20668;-70
2023/05/19 09:21:39;;;;;;;5.38;1.63;;;20.10;88.20;;;;;;5095423;28;20139;-71
2023/05/19 09:24:06;;;;;;;6.15;0.90;;;19.90;88.10;;;;;;5087420;28;20043;-70
2023/05/19 09:26:37;;;;;;;4.97;0.95;;;19.90;88.80;;;;;;5087600;28;20047;-70
2023/05/19 09:29:10;;;;;;;2.58;0.90;;;19.80;90.00;;;;;;5092825;28;20058;-70
2023/05/19 09:31:39;;;;;;;2.33;0.75;;;20.00;85.30;;;;;;5090402;28;20457;-70
2023/05/19 09:34:12;;;;;;;3.55;0.85;;;20.10;83.20;;;;;;5094472;28;20120;-69
2023/05/19 09:36:41;;;;;;;3.33;0.50;;;20.30;84.20;;;;;;5089869;28;20213;-70
2023/05/19 09:39:17;;;;;;;3.72;0.88;;;20.40;79.80;;;;;;5093812;28;20108;-71
2023/05/19 09:41:43;;;;;;;6.38;0.55;;;20.50;82.90;;;;;;5096470;28;20024;-70
2023/05/19 09:44:22;;;;;;;2.78;0.77;;;20.60;80.40;;;;;;5099681;28;20034;-71
2023/05/19 09:46:53;;;;;;;2.28;0.60;;;20.50;80.10;;;;;;5097099;28;20054;-70
2023/05/19 09:49:22;;;;;;;2.35;0.85;;;20.40;79.10;;;;;;5094411;28;20085;-69
2023/05/19 09:52:21;;;;;;;3.38;0.90;;;20.40;79.50;;;;;;5095466;28;20036;-69
2023/05/19 09:54:55;;;;;;;3.90;0.70;;;20.30;80.50;;;;;;5091022;28;20064;-70
2023/05/19 09:57:28;;;;;;;2.80;0.70;;;20.40;80.20;;;;;;5093382;28;20035;-72
2023/05/19 09:59:56;;;;;;;8.13;1.63;;;20.30;81.30;;;;;;5090265;28;20387;-70
2023/05/19 10:02:24;;;;;;;3.38;0.70;;;20.40;79.50;;;;;;5093609;28;20027;-70
2023/05/19 10:04:51;;;;;;;5.13;0.63;;;20.40;80.10;;;;;;5092195;28;20044;-69
2023/05/19 10:07:18;;;;;;;6.30;1.13;;;20.40;81.80;;;;;;5094784;28;20039;-70
2023/05/19 10:09:44;;;;;;;3.58;0.50;;;20.30;81.00;;;;;;5096579;28;20081;-70
2023/05/19 10:12:14;;;;;;;2.33;0.80;;;20.40;81.70;;;;;;5095322;28;20027;-70
2023/05/19 10:14:40;;;;;;;3.50;1.35;;;20.30;81.40;;;;;;5093864;28;20036;-70
2023/05/19 10:17:09;;;;;;;3.80;0.95;;;20.40;80.40;;;;;;5096104;28;20028;-70
2023/05/19 10:19:39;;;;;;;5.68;1.30;;;20.30;81.40;;;;;;5093435;28;20461;-70
2023/05/19 10:22:04;;;;;;;8.13;1.15;;;19.90;82.60;;;;;;5095785;28;20055;-71
2023/05/19 10:24:36;;;;;;;5.28;1.50;;;20.00;80.30;;;;;;5091771;28;20029;-70
2023/05/19 10:27:10;;;;;;;4.63;0.90;;;20.00;83.50;;;;;;5097300;27;20096;-69
2023/05/19 10:29:49;;;;;;;3.53;0.57;;;20.10;81.20;;;;;;5093977;28;20035;-69
2023/05/19 10:32:21;;;;;;;3.80;0.75;;;20.00;81.80;;;;;;5090709;28;20043;-70
2023/05/19 10:35:25;;;;;;;4.22;0.63;;;20.00;81.00;;;;;;5088190;28;20629;-69
2023/05/19 10:38:19;;;;;;;6.10;0.93;;;20.10;80.70;;;;;;5089459;28;20040;-69
2023/05/19 10:41:06;;;;;;;2.75;0.60;;;20.20;79.80;;;;;;5081744;28;20071;-72
2023/05/19 10:44:07;;;;;;;6.47;1.05;;;20.20;78.80;;;;;;5085563;28;20028;-70
2023/05/19 10:46:32;;;;;;;;;;;20.40;78.10;;;;;;5065250;28;20115;-70
2023/05/19 10:48:58;;;;;;;3.45;0.98;;;20.50;79.20;;;;;;5089403;28;20002;-70
2023/05/19 10:51:30;;;;;;;3.50;0.60;;;20.70;78.00;;;;;;5086427;28;20133;-70
2023/05/19 10:53:57;;;;;;;1.70;0.57;;;20.70;78.40;;;;;;5087858;28;20036;-70
2023/05/19 10:56:35;;;;;;;6.82;1.05;;;20.80;80.50;;;;;;5085681;28;20032;-71
2023/05/19 10:59:01;;;;;;;10.50;1.05;;;20.90;80.70;;;;;;5089404;28;20095;-69
2023/05/19 11:01:35;;;;;;;3.80;0.88;;;21.00;80.80;;;;;;5086300;28;20032;-70
2023/05/19 11:04:06;;;;;;;4.60;0.68;;;21.00;78.00;;;;;;5086480;28;20516;-71
2023/05/19 11:06:35;;;;;;;2.83;0.60;;;20.90;79.10;;;;;;5088603;28;20028;-69
2023/05/19 11:09:11;;;;;;;5.65;0.80;;;20.70;78.30;;;;;;5089918;28;20035;-68
2023/05/19 11:11:48;;;;;;;3.85;0.63;;;20.60;80.90;;;;;;5087168;28;20515;-70
2023/05/19 11:14:17;;;;;;;5.07;1.00;;;20.60;81.00;;;;;;5088659;28;20028;-69
2023/05/19 11:16:46;;;;;;;3.33;0.60;;;20.70;79.30;;;;;;5085758;28;20032;-69
2023/05/19 11:19:29;;;;;;;7.07;0.80;;;20.60;79.30;;;;;;5088287;28;20040;-70
2023/05/19 11:21:56;;;;;;;7.43;0.65;;;20.60;80.40;;;;;;5083440;28;20036;-69
2023/05/19 11:24:36;;;;;;;5.63;0.85;;;20.70;79.00;;;;;;5085521;28;20373;-70
2023/05/19 11:27:24;;;;;;;2.80;0.70;;;20.50;78.30;;;;;;5086524;28;20392;-70
2023/05/19 11:29:50;;;;;;;3.03;0.65;;;20.40;79.30;;;;;;5086093;28;20046;-71
2023/05/19 11:32:16;;;;;;;1.42;0.50;;;20.40;80.00;;;;;;5087999;28;20077;-70
2023/05/19 11:34:43;;;;;;;6.85;0.95;;;20.40;79.40;;;;;;5084273;28;20047;-70
2023/05/19 11:37:10;;;;;;;7.70;1.23;;;20.20;78.90;;;;;;5087977;28;20040;-71
2023/05/19 11:39:36;;;;;;;2.92;0.90;;;20.10;78.50;;;;;;5086452;28;20038;-70
2023/05/19 11:42:01;;;;;;;5.00;0.70;;;20.20;77.70;;;;;;5085611;28;20036;-70
2023/05/19 11:44:27;;;;;;;2.60;0.47;;;20.30;78.70;;;;;;5088641;28;20039;-69
2023/05/19 11:46:53;;;;;;;10.15;1.17;;;20.20;79.00;;;;;;5087854;28;20040;-71
2023/05/19 11:49:18;;;;;;;1.90;0.77;;;20.10;78.70;;;;;;5083637;28;20024;-70
2023/05/19 11:51:45;;;;;;;2.97;0.80;;;20.10;78.10;;;;;;5088833;28;20147;-72
2023/05/19 11:54:11;;;;;;;3.08;0.55;;;20.00;79.00;;;;;;5088012;28;20036;-70
2023/05/19 11:56:41;;;;;;;6.28;0.85;;;19.90;78.50;;;;;;5085364;28;20083;-71
2023/05/19 11:59:07;;;;;;;5.22;0.88;;;19.90;79.40;;;;;;5087183;28;20028;-69
2023/05/19 12:01:34;;;;;;;3.22;0.70;;;19.90;79.90;;;;;;5088665;28;20091;-72
2023/05/19 12:04:00;;;;;;;2.83;0.82;;;20.00;81.60;;;;;;5082198;28;20139;-69
2023/05/19 12:06:26;;;;;;;3.85;0.88;;;20.10;81.50;;;;;;5082768;28;20036;-70
2023/05/19 12:08:53;;;;;;;4.88;0.70;;;20.10;79.90;;;;;;5089001;28;20036;-70
2023/05/19 12:11:19;;;;;;;3.58;0.80;;;20.20;80.60;;;;;;5084787;28;20039;-72
2023/05/19 12:13:46;;;;;;;3.88;0.77;;;20.20;78.50;;;;;;5087322;28;20073;-69
2023/05/19 12:16:11;;;;;;;1.95;0.70;;;20.20;78.10;;;;;;5090606;28;20032;-70
2023/05/19 12:18:37;;;;;;;6.00;0.65;;;20.20;80.00;;;;;;5087533;28;20044;-69
2023/05/19 12:21:03;;;;;;;2.83;0.75;;;20.30;77.90;;;;;;5085605;28;20056;-69
2023/05/19 12:23:29;;;;;;;2.13;0.80;;;20.30;79.10;;;;;;5083462;28;20047;-71
2023/05/19 12:25:59;;;;;;;4.72;1.02;;;20.40;78.80;;;;;;5090838;28;20036;-69
2023/05/19 12:28:28;;;;;;;5.45;0.90;;;20.30;80.20;;;;;;5086280;28;20043;-68
2023/05/19 12:30:57;;;;;;;3.30;0.85;;;20.30;80.80;;;;;;5087589;28;20036;-70
2023/05/19 12:33:23;;;;;;;1.90;0.60;;;20.30;80.30;;;;;;5090724;28;20107;-70
2023/05/19 12:35:49;;;;;;;4.43;1.05;;;20.30;78.20;;;;;;5088175;28;20031;-70
2023/05/19 12:38:15;;;;;;;2.20;1.15;;;20.30;77.10;;;;;;5095487;28;20032;-70
2023/05/19 12:40:42;;;;;;;3.35;0.80;;;20.30;78.80;;;;;;5093698;28;20039;-71
2023/05/19 12:43:21;;;;;;;4.18;1.17;;;20.40;77.10;;;;;;5093733;28;20145;-69
2023/05/19 12:45:47;;;;;;;4.18;0.65;;;20.50;78.00;;;;;;5087626;28;20031;-70
2023/05/19 12:48:16;;;;;;;4.10;0.88;;;20.50;78.90;;;;;;5089989;28;20028;-70
2023/05/19 12:50:45;;;;;;;1.43;0.50;;;20.40;80.10;;;;;;5087117;28;20522;-70
2023/05/19 12:53:12;;;;;;;6.93;1.65;;;20.40;81.40;;;;;;5092814;28;20058;-70
2023/05/19 12:55:42;;;;;;;4.53;0.90;;;20.40;81.40;;;;;;5090882;28;20716;-71
2023/05/19 12:58:10;;;;;;;2.85;0.70;;;20.30;81.40;;;;;;5096387;28;20486;-71
2023/05/19 13:00:43;;;;;;;7.43;0.90;;;20.30;82.70;;;;;;5091496;28;20027;-71